APL Denmark — A8JX9 — position and weather

sailwx.info

Track history (hours):
 
Tides and Currents Weather Stations Pressure Air Temp Water Temp Dewpoint Dewpoint Depression Visibility Wind Speed Wind Dir Waves Ship Positions

APL Denmark

Last reported at 2014-Sep-20 03:34 UTC. Time now 2014-Sep-20 07:59 UTC.
Position N 36°04' W 005°13'.

Length 277 m; beam 40 m; draft 14 m.

Type: Ship (hazmat cat A). MMSI: 636091157.

Date/timePositionNaut miles runAvg speedWind from/ knotsBaromVisibWave heightAir tempDewpointWater temp
2014-Sep-20 03:34N 36°04' W 005°13'16912.9
2014-Sep-19 14:26N 36°31' W 001°46'1213.6
2014-Sep-19 13:32N 36°35' W 001°31'3616.9
2014-Sep-19 11:23N 36°44' W 000°48'1819.6
2014-Sep-19 10:29N 36°49' W 000°26'1515.6
2014-Sep-19 09:30N 36°53' W 000°08'1313.8
2014-Sep-19 08:33N 36°56' E 000°08'1513.9
2014-Sep-19 07:30N 37°00' E 000°26'1313.9
2014-Sep-19 06:33N 37°04' E 000°42'1313.3
2014-Sep-19 05:33N 37°07' E 000°58'1312.9
2014-Sep-19 04:31N 37°10' E 001°14'1313.2
2014-Sep-19 03:33N 37°14' E 001°30'1413.8
2014-Sep-19 02:31N 37°18' E 001°47'5914.4
2014-Sep-18 22:23N 37°33' E 002°59'6013.9
2014-Sep-18 18:04N 37°49' E 004°12'714.4
2014-Sep-18 17:33N 37°51' E 004°21'1413.9
2014-Sep-18 16:33N 37°54' E 004°38'1514.0
2014-Sep-18 15:29N 37°59' E 004°57'15413.9
2014-Sep-18 04:26N 38°38' E 008°06'1314.6
2014-Sep-18 03:32N 38°42' E 008°22'1614.7
2014-Sep-18 02:27N 38°46' E 008°42'1314.7
2014-Sep-18 01:33N 38°49' E 008°58'1413.9
2014-Sep-18 00:33N 39°01' E 009°08'1111.3
2014-Sep-17 23:33N 39°12' E 009°05'1 1.1
2014-Sep-17 22:32N 39°13' E 009°04'0 0.0
2014-Sep-17 21:32N 39°13' E 009°04'0 0.0
2014-Sep-17 20:32N 39°13' E 009°04'0 0.0
2014-Sep-17 19:32N 39°13' E 009°04'0 0.0
2014-Sep-17 18:29N 39°13' E 009°04'0 0.0
2014-Sep-17 17:32N 39°13' E 009°04'0 0.0
2014-Sep-17 16:32N 39°13' E 009°04'0 0.0
2014-Sep-17 15:32N 39°13' E 009°04'0 0.0
2014-Sep-17 14:32N 39°13' E 009°04'0 0.0
2014-Sep-17 13:32N 39°13' E 009°04'0 0.0
2014-Sep-17 12:32N 39°13' E 009°04'0 0.0
2014-Sep-17 11:32N 39°13' E 009°04'0 0.2
2014-Sep-17 10:33N 39°13' E 009°04'5 5.0
2014-Sep-17 09:33N 39°08' E 009°06'8 8.5
2014-Sep-17 08:33N 39°03' E 009°14'1110.7
2014-Sep-17 07:33N 38°57' E 009°26'21712.7
2014-Sep-16 14:30N 37°02' E 013°18'1313.5
2014-Sep-16 13:32N 36°55' E 013°32'1312.7
2014-Sep-16 12:33N 36°48' E 013°45'1212.1
2014-Sep-16 11:33N 36°42' E 013°58'1211.9
2014-Sep-16 10:33N 36°35' E 014°10'1312.6
2014-Sep-16 09:33N 36°29' E 014°24'1313.0
2014-Sep-16 08:33N 36°23' E 014°38'1312.9
2014-Sep-16 07:33N 36°19' E 014°54'1312.7
2014-Sep-16 06:33N 36°15' E 015°09'1312.8
2014-Sep-16 05:33N 36°12' E 015°24'53414.0
2014-Sep-14 15:33N 33°33' E 025°45'2114.4
2014-Sep-14 14:05N 33°26' E 026°09'  
2014-Sep-10 07:00N 18°12' E 040°18'   300 / 541005.010.8 3.036.033.535.0
Track history (hours):
 
Tides and Currents Weather Stations Pressure Air Temp Water Temp Dewpoint Dewpoint Depression Visibility Wind Speed Wind Dir Waves Ship Positions

APL Denmark

Last reported at 2014-Sep-20 03:34 UTC. Time now 2014-Sep-20 07:59 UTC.
Position N 36°04' W 005°13'.

Length 277 m; beam 40 m; draft 14 m.

Type: Ship (hazmat cat A). MMSI: 636091157.

Date/timePositionNaut miles runAvg speedWind from/ knotsBaromVisibWave heightAir tempDewpointWater temp
2014-Sep-20 03:34N 36°04' W 005°13'16912.9
2014-Sep-19 14:26N 36°31' W 001°46'1213.6
2014-Sep-19 13:32N 36°35' W 001°31'3616.9
2014-Sep-19 11:23N 36°44' W 000°48'1819.6
2014-Sep-19 10:29N 36°49' W 000°26'1515.6
2014-Sep-19 09:30N 36°53' W 000°08'1313.8
2014-Sep-19 08:33N 36°56' E 000°08'1513.9
2014-Sep-19 07:30N 37°00' E 000°26'1313.9
2014-Sep-19 06:33N 37°04' E 000°42'1313.3
2014-Sep-19 05:33N 37°07' E 000°58'1312.9
2014-Sep-19 04:31N 37°10' E 001°14'1313.2
2014-Sep-19 03:33N 37°14' E 001°30'1413.8
2014-Sep-19 02:31N 37°18' E 001°47'5914.4
2014-Sep-18 22:23N 37°33' E 002°59'6013.9
2014-Sep-18 18:04N 37°49' E 004°12'714.4
2014-Sep-18 17:33N 37°51' E 004°21'1413.9
2014-Sep-18 16:33N 37°54' E 004°38'1514.0
2014-Sep-18 15:29N 37°59' E 004°57'15413.9
2014-Sep-18 04:26N 38°38' E 008°06'1314.6
2014-Sep-18 03:32N 38°42' E 008°22'1614.7
2014-Sep-18 02:27N 38°46' E 008°42'1314.7
2014-Sep-18 01:33N 38°49' E 008°58'1413.9
2014-Sep-18 00:33N 39°01' E 009°08'1111.3
2014-Sep-17 23:33N 39°12' E 009°05'1 1.1
2014-Sep-17 22:32N 39°13' E 009°04'0 0.0
2014-Sep-17 21:32N 39°13' E 009°04'0 0.0
2014-Sep-17 20:32N 39°13' E 009°04'0 0.0
2014-Sep-17 19:32N 39°13' E 009°04'0 0.0
2014-Sep-17 18:29N 39°13' E 009°04'0 0.0
2014-Sep-17 17:32N 39°13' E 009°04'0 0.0
2014-Sep-17 16:32N 39°13' E 009°04'0 0.0
2014-Sep-17 15:32N 39°13' E 009°04'0 0.0
2014-Sep-17 14:32N 39°13' E 009°04'0 0.0
2014-Sep-17 13:32N 39°13' E 009°04'0 0.0
2014-Sep-17 12:32N 39°13' E 009°04'0 0.0
2014-Sep-17 11:32N 39°13' E 009°04'0 0.2
2014-Sep-17 10:33N 39°13' E 009°04'5 5.0
2014-Sep-17 09:33N 39°08' E 009°06'8 8.5
2014-Sep-17 08:33N 39°03' E 009°14'1110.7
2014-Sep-17 07:33N 38°57' E 009°26'21712.7
2014-Sep-16 14:30N 37°02' E 013°18'1313.5
2014-Sep-16 13:32N 36°55' E 013°32'1312.7
2014-Sep-16 12:33N 36°48' E 013°45'1212.1
2014-Sep-16 11:33N 36°42' E 013°58'1211.9
2014-Sep-16 10:33N 36°35' E 014°10'1312.6
2014-Sep-16 09:33N 36°29' E 014°24'1313.0
2014-Sep-16 08:33N 36°23' E 014°38'1312.9
2014-Sep-16 07:33N 36°19' E 014°54'1312.7
2014-Sep-16 06:33N 36°15' E 015°09'1312.8
2014-Sep-16 05:33N 36°12' E 015°24'53414.0
2014-Sep-14 15:33N 33°33' E 025°45'2114.4
2014-Sep-14 14:05N 33°26' E 026°09'  
2014-Sep-10 07:00N 18°12' E 040°18'   300 / 541005.010.8 3.036.033.535.0

Dump ship's entire track history